Time;durP1;ratioP1;P1;durP2;ratioP2;P2;SDS_P1;SDS_P2;PMS_P1;PMS_P2;Temp;Humidity;BMP_temperature;BMP_pressure;BME280_temperature;BME280_humidity;BME280_pressure;Samples;Min_cycle;Max_cycle;Signal;HPM_P1;HPM_P2
2022/05/22 00:00:21;;;;;;;11.25;4.68;;;13.00;99.90;;;;;;4976555;28;89388;-71
2022/05/22 00:02:48;;;;;;;8.77;4.32;;;12.90;99.90;;;;;;4976451;28;91677;-71
2022/05/22 00:05:18;;;;;;;8.40;4.40;;;12.90;99.90;;;;;;4976513;28;90210;-71
2022/05/22 00:07:46;;;;;;;10.52;4.28;;;12.90;99.90;;;;;;4977059;28;88078;-71
2022/05/22 00:10:13;;;;;;;8.85;4.63;;;12.90;99.90;;;;;;4976178;28;91043;-71
2022/05/22 00:12:40;;;;;;;7.38;4.72;;;12.80;99.90;;;;;;4976278;28;89062;-71
2022/05/22 00:15:10;;;;;;;7.93;4.22;;;12.80;99.90;;;;;;4960287;28;91928;-71
2022/05/22 00:17:37;;;;;;;8.10;4.45;;;12.80;99.90;;;;;;4977608;28;88033;-71
2022/05/22 00:20:05;;;;;;;9.25;4.55;;;12.80;99.90;;;;;;4976065;28;89774;-71
2022/05/22 00:22:32;;;;;;;8.13;4.38;;;12.80;99.90;;;;;;4975729;28;100017;-71
2022/05/22 00:24:59;;;;;;;9.70;4.30;;;12.70;99.90;;;;;;4975994;28;93980;-71
2022/05/22 00:27:27;;;;;;;8.52;4.82;;;12.70;99.90;;;;;;4977827;28;88080;-71
2022/05/22 00:29:54;;;;;;;9.70;5.05;;;12.60;99.90;;;;;;4977558;28;88498;-71
2022/05/22 00:32:20;;;;;;;11.02;5.00;;;12.60;99.90;;;;;;4976091;28;90286;-71
2022/05/22 00:34:47;;;;;;;8.45;4.75;;;12.60;99.90;;;;;;4976234;28;91170;-71
2022/05/22 00:37:15;;;;;;;13.52;4.50;;;12.50;99.90;;;;;;4959767;28;89046;-71
2022/05/22 00:39:43;;;;;;;9.65;4.75;;;12.50;99.90;;;;;;4976575;28;90984;-71
2022/05/22 00:42:18;;;;;;;6.50;4.32;;;12.50;99.90;;;;;;4959679;28;91211;-71
2022/05/22 00:44:46;;;;;;;8.60;4.50;;;12.50;99.90;;;;;;4977386;28;88506;-71
2022/05/22 00:47:15;;;;;;;9.57;4.90;;;12.50;99.90;;;;;;4975721;28;88794;-71
2022/05/22 00:49:44;;;;;;;10.65;4.10;;;12.40;99.90;;;;;;4959924;28;90897;-71
2022/05/22 00:52:15;;;;;;;7.50;4.60;;;12.40;99.90;;;;;;4979262;28;88954;-71
2022/05/22 00:54:48;;;;;;;7.95;5.38;;;12.40;99.90;;;;;;4978876;28;89729;-71
2022/05/22 00:57:17;;;;;;;10.05;5.50;;;12.40;99.90;;;;;;4980800;28;88083;-71
2022/05/22 00:59:52;;;;;;;7.82;4.75;;;12.30;99.90;;;;;;4979421;28;88394;-71
2022/05/22 01:02:19;;;;;;;10.75;5.32;;;12.30;99.90;;;;;;4978973;28;91269;-71
2022/05/22 01:04:49;;;;;;;10.40;5.18;;;12.20;99.90;;;;;;4963169;28;91367;-71
2022/05/22 01:07:17;;;;;;;9.30;4.65;;;12.20;99.90;;;;;;4962710;28;88729;-71
2022/05/22 01:09:46;;;;;;;10.05;4.93;;;12.20;99.90;;;;;;4962780;28;91188;-71
2022/05/22 01:12:22;;;;;;;9.20;4.95;;;12.10;99.90;;;;;;4978561;28;92092;-71
2022/05/22 01:14:54;;;;;;;6.93;5.00;;;12.20;99.90;;;;;;4978664;28;91398;-71
2022/05/22 01:17:21;;;;;;;7.45;5.00;;;12.10;99.90;;;;;;4978575;28;88438;-71
2022/05/22 01:20:00;;;;;;;10.48;5.25;;;12.10;99.90;;;;;;4979015;28;89188;-71
2022/05/22 01:22:28;;;;;;;7.53;4.63;;;12.10;99.90;;;;;;4979001;28;90820;-71
2022/05/22 01:24:57;;;;;;;10.50;6.13;;;12.00;99.90;;;;;;4978814;28;91067;-71
2022/05/22 01:27:27;;;;;;;12.35;5.35;;;11.90;99.90;;;;;;4978815;28;89018;-71
2022/05/22 01:30:23;;;;;;;8.57;5.47;;;11.90;99.90;;;;;;4978963;28;90739;-71
2022/05/22 01:32:59;;;;;;;6.07;4.65;;;12.00;99.90;;;;;;4978615;28;91254;-71
2022/05/22 01:35:27;;;;;;;9.00;5.07;;;11.90;99.90;;;;;;4978522;28;90538;-71
2022/05/22 01:37:58;;;;;;;8.13;5.07;;;11.90;99.90;;;;;;4962581;28;88828;-71
2022/05/22 01:40:25;;;;;;;6.43;4.38;;;11.80;99.90;;;;;;4978364;28;90282;-71
2022/05/22 01:42:52;;;;;;;8.52;5.13;;;11.80;99.90;;;;;;4978671;28;92883;-71
2022/05/22 01:45:23;;;;;;;7.60;5.40;;;11.80;99.90;;;;;;4978339;28;90817;-71
2022/05/22 01:47:52;;;;;;;6.50;5.18;;;11.80;99.90;;;;;;4978725;28;89158;-71
2022/05/22 01:50:26;;;;;;;8.10;4.97;;;11.80;99.90;;;;;;4963272;28;89303;-71
2022/05/22 01:52:53;;;;;;;8.80;5.30;;;11.70;99.90;;;;;;4977549;28;91257;-71
2022/05/22 01:55:21;;;;;;;9.30;5.72;;;11.70;99.90;;;;;;4978505;28;90720;-71
2022/05/22 01:57:49;;;;;;;6.38;4.85;;;11.70;99.90;;;;;;4978391;28;89162;-71
2022/05/22 02:00:20;;;;;;;7.40;4.60;;;11.70;99.90;;;;;;4961895;28;90796;-71
2022/05/22 02:02:57;;;;;;;7.05;5.10;;;11.70;99.90;;;;;;4977924;28;92027;-71
2022/05/22 02:05:31;;;;;;;8.82;5.20;;;11.70;99.90;;;;;;4978161;28;91718;-71
2022/05/22 02:10:46;;;;;;;9.27;5.10;;;11.60;99.90;;;;;;4978238;28;90581;-71
2022/05/22 02:13:18;;;;;;;5.95;5.05;;;11.60;99.90;;;;;;4977830;28;91116;-71
2022/05/22 02:15:46;;;;;;;5.20;4.70;;;11.50;99.90;;;;;;4978120;28;91139;-71
2022/05/22 02:18:13;;;;;;;6.60;5.43;;;11.50;99.90;;;;;;4961650;28;88169;-71
2022/05/22 02:20:40;;;;;;;7.90;5.32;;;11.50;99.90;;;;;;4961986;28;88504;-71
2022/05/22 02:23:07;;;;;;;5.70;5.05;;;11.50;99.90;;;;;;4978099;28;90742;-71
2022/05/22 02:25:37;;;;;;;7.40;5.22;;;11.50;99.90;;;;;;4977910;28;91057;-71
2022/05/22 02:28:07;;;;;;;8.23;6.18;;;11.50;99.90;;;;;;4977547;28;89179;-71
2022/05/22 02:30:39;;;;;;;8.23;5.30;;;11.50;99.90;;;;;;4978004;28;91454;-71
2022/05/22 02:33:07;;;;;;;6.68;5.22;;;11.40;99.90;;;;;;4977586;28;90170;-71
2022/05/22 02:35:51;;;;;;;7.35;5.20;;;11.40;99.90;;;;;;4977731;28;90917;-71
2022/05/22 02:38:26;;;;;;;6.82;4.78;;;11.40;99.90;;;;;;4962636;28;89175;-71
2022/05/22 02:40:52;;;;;;;5.05;4.60;;;11.30;99.90;;;;;;4977597;28;90975;-71
2022/05/22 02:43:19;;;;;;;6.50;4.65;;;11.30;99.90;;;;;;4977314;28;90305;-71
2022/05/22 02:45:54;;;;;;;5.78;4.85;;;11.30;99.90;;;;;;4962877;28;91072;-71
2022/05/22 02:48:22;;;;;;;7.82;4.63;;;11.30;99.90;;;;;;4977476;28;89142;-71
2022/05/22 02:51:01;;;;;;;9.00;4.85;;;11.30;99.90;;;;;;4977569;28;91015;-71
2022/05/22 02:53:28;;;;;;;8.40;5.10;;;11.30;99.90;;;;;;4977835;28;89601;-71
2022/05/22 02:56:16;;;;;;;10.65;5.57;;;11.20;99.90;;;;;;4977790;28;88085;-71
2022/05/22 02:59:05;;;;;;;7.28;5.07;;;11.20;99.90;;;;;;4977471;28;88070;-71
2022/05/22 03:01:54;;;;;;;10.38;5.82;;;11.20;99.90;;;;;;4992840;28;89449;-71
2022/05/22 03:04:21;;;;;;;8.18;5.25;;;11.20;99.90;;;;;;4980140;28;91365;-71
2022/05/22 03:06:49;;;;;;;7.60;5.30;;;11.20;99.90;;;;;;4986713;28;91028;-71
2022/05/22 03:09:19;;;;;;;5.50;5.00;;;11.20;99.90;;;;;;4976975;28;89399;-71
2022/05/22 03:11:49;;;;;;;8.60;5.30;;;11.20;99.90;;;;;;4977528;28;90778;-71
2022/05/22 03:14:16;;;;;;;8.98;5.18;;;11.20;99.90;;;;;;4959448;28;91567;-71
2022/05/22 03:16:44;;;;;;;9.40;4.82;;;11.20;99.90;;;;;;4977059;28;91170;-71
2022/05/22 03:19:21;;;;;;;6.82;5.13;;;11.20;99.90;;;;;;4961734;28;88710;-71
2022/05/22 03:21:48;;;;;;;4.63;4.22;;;11.20;99.90;;;;;;4976998;28;90922;-71
2022/05/22 03:24:15;;;;;;;6.47;5.15;;;11.20;99.90;;;;;;4977117;28;90283;-71
2022/05/22 03:26:49;;;;;;;8.25;4.80;;;11.20;99.90;;;;;;4976824;28;90985;-71
2022/05/22 03:29:17;;;;;;;6.70;4.95;;;11.10;99.90;;;;;;4976993;28;89460;-71
2022/05/22 03:31:44;;;;;;;9.02;5.55;;;11.10;99.90;;;;;;4976844;28;90329;-71
2022/05/22 03:34:12;;;;;;;7.00;4.60;;;11.10;99.90;;;;;;4976821;28;91219;-71
2022/05/22 03:36:45;;;;;;;10.77;4.83;;;11.10;99.90;;;;;;4961734;28;90612;-71
2022/05/22 03:39:13;;;;;;;12.52;5.60;;;11.10;99.90;;;;;;4960547;28;89512;-71
2022/05/22 03:41:41;;;;;;;8.40;5.10;;;11.20;99.90;;;;;;4976642;28;90758;-71
2022/05/22 03:44:08;;;;;;;6.32;4.60;;;11.20;99.90;;;;;;4976464;28;90557;-71
2022/05/22 03:46:41;;;;;;;6.32;4.60;;;11.20;99.90;;;;;;4978179;28;89204;-71
2022/05/22 03:49:08;;;;;;;8.07;4.78;;;11.20;99.90;;;;;;4977000;28;89072;-71
2022/05/22 03:51:39;;;;;;;7.97;5.00;;;11.20;99.90;;;;;;4960611;28;90946;-71
2022/05/22 03:54:10;;;;;;;6.72;5.00;;;11.20;99.90;;;;;;4960388;28;90878;-72
2022/05/22 03:56:41;;;;;;;8.55;5.43;;;11.20;99.90;;;;;;4976659;28;90816;-71
2022/05/22 03:59:23;;;;;;;6.85;4.72;;;11.20;99.90;;;;;;4978013;28;87961;-72
2022/05/22 04:01:52;;;;;;;7.50;5.45;;;11.30;99.90;;;;;;4978355;28;88392;-71
2022/05/22 04:04:20;;;;;;;9.38;5.40;;;11.40;99.90;;;;;;4960214;28;91466;-71
2022/05/22 04:06:48;;;;;;;8.38;5.03;;;11.50;99.90;;;;;;4976482;28;90897;-71
2022/05/22 04:09:21;;;;;;;9.05;5.10;;;11.60;99.90;;;;;;4976327;28;88885;-71
2022/05/22 04:12:14;;;;;;;12.07;7.93;;;11.70;99.90;;;;;;4960793;28;88164;-71
2022/05/22 04:14:43;;;;;;;7.20;5.03;;;11.70;99.90;;;;;;4960309;28;91518;-71
2022/05/22 04:17:12;;;;;;;7.40;5.80;;;11.70;99.90;;;;;;4976558;28;90909;-71
2022/05/22 04:19:40;;;;;;;9.60;5.40;;;11.80;99.90;;;;;;4976214;28;89118;-71
2022/05/22 04:22:10;;;;;;;12.15;6.03;;;11.80;99.90;;;;;;4960580;28;91094;-71
2022/05/22 04:27:28;;;;;;;11.90;5.60;;;11.90;99.90;;;;;;4980000;28;91161;-71
2022/05/22 04:29:57;;;;;;;9.20;5.70;;;12.00;99.90;;;;;;4979901;28;89340;-71
2022/05/22 04:32:26;;;;;;;10.07;5.47;;;12.00;99.90;;;;;;4979440;28;90855;-71
2022/05/22 04:34:57;;;;;;;7.90;5.38;;;12.10;99.90;;;;;;4979285;28;91761;-71
2022/05/22 04:37:25;;;;;;;8.73;6.40;;;12.20;99.90;;;;;;4979588;28;91563;-71
2022/05/22 04:39:55;;;;;;;7.75;5.40;;;12.30;99.90;;;;;;4979572;28;89414;-72
2022/05/22 04:42:22;;;;;;;9.65;5.65;;;12.30;99.90;;;;;;4979628;28;91000;-71
2022/05/22 04:44:49;;;;;;;7.57;6.00;;;12.40;99.90;;;;;;4963132;28;91229;-72
2022/05/22 04:47:30;;;;;;;12.60;6.47;;;12.50;99.90;;;;;;4979338;28;90032;-74
2022/05/22 04:50:20;;;;;;;13.13;6.38;;;12.50;99.90;;;;;;4979307;28;89374;-74
2022/05/22 04:53:05;;;;;;;11.18;6.32;;;12.60;99.90;;;;;;4977800;28;87888;-74
2022/05/22 04:55:52;;;;;;;10.88;6.55;;;12.70;99.90;;;;;;4948786;28;88174;-74
2022/05/22 04:58:20;;;;;;;10.98;6.40;;;12.70;99.90;;;;;;4979418;28;91162;-71
2022/05/22 05:00:48;;;;;;;10.13;6.22;;;12.80;99.90;;;;;;4978446;28;89561;-72
2022/05/22 05:03:16;;;;;;;13.68;6.63;;;12.80;99.90;;;;;;4979161;28;90601;-72
2022/05/22 05:05:52;;;;;;;12.48;7.32;;;12.90;99.90;;;;;;4978936;28;89740;-72
2022/05/22 05:08:19;;;;;;;10.82;6.97;;;13.00;99.90;;;;;;4962946;28;91376;-72
2022/05/22 05:10:53;;;;;;;10.93;6.13;;;13.00;99.90;;;;;;4978983;28;88084;-72
2022/05/22 05:13:30;;;;;;;13.60;6.47;;;13.00;99.90;;;;;;4979266;28;90702;-72
2022/05/22 05:16:06;;;;;;;11.48;6.88;;;13.10;99.90;;;;;;4979128;28;90525;-71
2022/05/22 05:18:39;;;;;;;15.45;7.72;;;13.20;99.90;;;;;;4979247;28;90830;-72
2022/05/22 05:21:10;;;;;;;12.43;6.70;;;13.20;99.90;;;;;;4979108;28;89705;-72
2022/05/22 05:23:38;;;;;;;12.43;6.75;;;13.30;99.90;;;;;;4978703;28;90737;-71
2022/05/22 05:26:13;;;;;;;12.48;6.78;;;13.40;99.90;;;;;;4978558;28;91943;-72
2022/05/22 05:28:40;;;;;;;14.63;8.00;;;13.50;99.90;;;;;;4978527;28;91782;-72
2022/05/22 05:31:09;;;;;;;9.93;6.55;;;13.60;99.90;;;;;;4978835;28;89452;-71
2022/05/22 05:33:38;;;;;;;11.13;6.38;;;13.70;99.90;;;;;;4962788;28;90726;-72
2022/05/22 05:36:28;;;;;;;11.95;6.80;;;13.90;99.90;;;;;;4979215;28;89643;-72
2022/05/22 05:39:05;;;;;;;11.15;6.95;;;14.00;99.90;;;;;;4963738;28;91994;-74
2022/05/22 05:41:54;;;;;;;13.75;5.90;;;14.30;99.90;;;;;;4979520;28;88078;-74
2022/05/22 05:44:23;;;;;;;10.60;6.13;;;14.50;99.90;;;;;;4963101;28;89646;-74
2022/05/22 05:46:58;;;;;;;12.25;6.47;;;14.60;99.90;;;;;;4978398;28;90998;-74
2022/05/22 05:49:33;;;;;;;16.20;6.60;;;14.80;99.90;;;;;;4978484;28;91042;-74
2022/05/22 05:52:19;;;;;;;10.15;6.28;;;15.00;99.90;;;;;;4978938;28;88808;-74
2022/05/22 05:55:03;;;;;;;10.77;6.18;;;15.20;99.90;;;;;;4978115;28;88481;-72
2022/05/22 05:57:49;;;;;;;11.98;7.22;;;15.30;99.90;;;;;;4978277;28;88922;-72
2022/05/22 06:00:18;;;;;;;9.70;7.57;;;15.50;99.90;;;;;;4978364;28;91398;-72
2022/05/22 06:02:49;;;;;;;;;;;15.60;99.90;;;;;;4978810;28;89759;-72
2022/05/22 06:05:17;;;;;;;15.10;7.25;;;15.50;99.90;;;;;;4963141;28;90762;-72
2022/05/22 06:07:49;;;;;;;10.65;7.15;;;15.70;99.90;;;;;;4975643;28;95633;-72
2022/05/22 06:10:20;;;;;;;14.30;8.18;;;15.90;99.90;;;;;;4976362;28;94912;-72
2022/05/22 06:12:56;;;;;;;10.07;7.07;;;15.90;99.90;;;;;;4977315;28;92379;-71
2022/05/22 06:15:23;;;;;;;12.25;6.78;;;16.00;99.90;;;;;;4975877;28;92504;-71
2022/05/22 06:17:52;;;;;;;12.43;8.23;;;16.00;99.90;;;;;;4974104;28;97871;-71
2022/05/22 06:20:23;;;;;;;14.75;7.30;;;16.10;99.90;;;;;;4975677;28;97767;-71
2022/05/22 06:22:50;;;;;;;16.25;7.43;;;16.10;99.90;;;;;;4975618;28;92799;-71
2022/05/22 06:25:35;;;;;;;11.80;6.30;;;16.10;99.90;;;;;;4975635;28;92503;-72
2022/05/22 06:28:21;;;;;;;12.43;6.97;;;16.10;99.90;;;;;;4977384;28;92454;-71
2022/05/22 06:31:04;;;;;;;14.57;7.00;;;16.20;99.90;;;;;;4975403;28;94867;-71
2022/05/22 06:33:55;;;;;;;12.73;6.68;;;16.30;99.90;;;;;;4974886;28;92936;-71
2022/05/22 06:36:31;;;;;;;13.73;6.95;;;16.50;99.90;;;;;;4975776;28;91697;-71
2022/05/22 06:42:38;;;;;;;16.17;6.85;;;16.70;99.90;;;;;;4976506;28;92519;-71
2022/05/22 06:45:22;;;;;;;11.50;6.20;;;16.90;99.90;;;;;;4972339;28;94840;-71
2022/05/22 06:48:15;;;;;;;15.93;6.25;;;17.00;99.90;;;;;;4945286;28;92481;-71
2022/05/22 06:50:51;;;;;;;13.75;7.68;;;17.10;99.90;;;;;;4976056;28;92988;-72
2022/05/22 06:53:27;;;;;;;17.00;8.18;;;17.10;99.90;;;;;;4976388;28;92770;-72
2022/05/22 06:55:58;;;;;;;15.00;7.07;;;17.20;99.90;;;;;;4976832;28;92780;-72
2022/05/22 06:58:45;;;;;;;15.07;6.88;;;17.30;99.90;;;;;;4975671;28;92453;-72
2022/05/22 07:01:16;;;;;;;16.60;6.82;;;17.20;99.90;;;;;;4959198;28;93105;-72
2022/05/22 07:04:03;;;;;;;19.65;6.53;;;17.30;99.90;;;;;;4975129;28;95117;-72
2022/05/22 07:06:45;;;;;;;12.55;5.55;;;17.30;99.90;;;;;;4975342;28;92746;-72
2022/05/22 07:09:16;;;;;;;11.93;6.18;;;17.30;99.90;;;;;;4976410;28;92454;-72
2022/05/22 07:12:09;;;;;;;13.63;6.30;;;17.40;99.70;;;;;;4967104;28;95424;-72
2022/05/22 07:14:57;;;;;;;12.98;6.63;;;17.50;99.60;;;;;;4975643;28;96104;-72
2022/05/22 07:17:49;;;;;;;12.20;6.13;;;17.60;99.40;;;;;;4976300;28;92482;-72
2022/05/22 07:20:50;;;;;;;10.30;5.47;;;17.60;99.10;;;;;;4962923;28;93485;-72
2022/05/22 07:23:26;;;;;;;9.38;5.97;;;17.60;98.90;;;;;;4974967;28;94584;-72
2022/05/22 07:26:13;;;;;;;10.48;5.57;;;17.70;98.70;;;;;;4968503;28;92751;-72
2022/05/22 07:29:15;;;;;;;12.45;5.88;;;17.80;98.50;;;;;;4915309;28;92619;-72
2022/05/22 07:32:06;;;;;;;16.73;5.35;;;17.90;98.50;;;;;;4969727;28;92267;-72
2022/05/22 07:35:00;;;;;;;11.75;8.75;;;18.00;98.20;;;;;;4974289;28;95434;-72
2022/05/22 07:38:05;;;;;;;13.20;5.78;;;18.00;97.90;;;;;;4914697;28;92636;-72
2022/05/22 07:41:04;;;;;;;11.27;5.50;;;18.10;97.60;;;;;;4890871;28;94828;-72
2022/05/22 07:43:59;;;;;;;10.38;5.68;;;18.10;97.30;;;;;;4964621;28;92529;-72
2022/05/22 07:46:31;;;;;;;13.55;6.45;;;18.10;97.30;;;;;;4975020;28;93327;-72
2022/05/22 07:52:31;;;;;;;8.68;5.05;;;18.30;96.50;;;;;;4953087;28;92563;-71
2022/05/22 07:55:20;;;;;;;10.90;4.57;;;18.40;96.80;;;;;;4931131;28;92636;-72
2022/05/22 07:58:10;;;;;;;7.78;4.20;;;18.50;96.90;;;;;;4964504;28;93976;-72
2022/05/22 08:01:01;;;;;;;7.22;4.28;;;19.00;96.60;;;;;;4975642;28;93831;-72
2022/05/22 08:03:46;;;;;;;10.30;4.45;;;20.00;95.60;;;;;;4975160;28;92371;-72
2022/05/22 08:06:34;;;;;;;7.30;5.22;;;21.40;93.50;;;;;;4974610;28;92552;-73
2022/05/22 08:09:11;;;;;;;7.70;4.47;;;22.80;89.20;;;;;;4958042;28;97639;-73
2022/05/22 08:11:41;;;;;;;8.73;4.57;;;23.50;82.60;;;;;;4958364;28;96990;-73
2022/05/22 08:14:11;;;;;;;6.35;3.58;;;24.40;79.40;;;;;;4958357;28;92507;-73
2022/05/22 08:16:41;;;;;;;7.55;3.20;;;25.40;74.80;;;;;;4958400;28;92986;-73
2022/05/22 08:19:13;;;;;;;8.25;3.15;;;26.20;70.50;;;;;;4973906;28;96437;-73
2022/05/22 08:22:03;;;;;;;6.10;2.55;;;26.80;67.40;;;;;;4975102;28;93810;-73
2022/05/22 08:24:53;;;;;;;8.02;3.30;;;27.80;63.60;;;;;;4969444;28;92461;-73
2022/05/22 08:27:35;;;;;;;6.90;3.38;;;28.70;60.50;;;;;;4974548;28;91770;-73
2022/05/22 08:30:14;;;;;;;6.63;4.32;;;29.80;54.40;;;;;;4973950;28;95531;-73
2022/05/22 08:32:46;;;;;;;6.07;3.53;;;30.00;53.50;;;;;;4973903;28;95027;-74
2022/05/22 08:35:16;;;;;;;6.57;4.13;;;30.70;51.90;;;;;;4972977;28;94854;-73
2022/05/22 08:37:43;;;;;;;7.15;4.13;;;31.40;49.50;;;;;;4974507;28;92920;-74
2022/05/22 08:40:13;;;;;;;7.13;3.13;;;31.50;47.00;;;;;;4973550;28;96004;-73
2022/05/22 08:42:46;;;;;;;6.15;3.67;;;31.20;46.50;;;;;;4975222;28;92863;-73
2022/05/22 08:45:22;;;;;;;7.30;3.20;;;30.50;46.10;;;;;;4975456;28;92368;-73
2022/05/22 08:47:49;;;;;;;4.88;2.60;;;30.50;45.90;;;;;;4974247;28;92397;-73
2022/05/22 08:50:16;;;;;;;5.82;2.67;;;30.00;46.80;;;;;;4975038;28;93227;-74
2022/05/22 08:53:03;;;;;;;7.55;3.80;;;29.70;47.80;;;;;;4974246;28;92973;-73
2022/05/22 08:58:58;;;;;;;6.68;4.03;;;29.30;48.10;;;;;;4975189;28;92440;-73
2022/05/22 09:01:52;;;;;;;6.38;2.60;;;29.30;48.50;;;;;;4973829;28;95632;-73
2022/05/22 09:04:48;;;;;;;8.13;3.00;;;29.20;47.60;;;;;;4973279;28;97971;-73
2022/05/22 09:07:24;;;;;;;7.70;2.97;;;28.80;48.60;;;;;;4943643;28;92591;-73
2022/05/22 09:10:00;;;;;;;6.85;2.70;;;28.40;49.80;;;;;;4973754;28;92539;-73
2022/05/22 09:12:49;;;;;;;6.05;3.00;;;28.00;51.40;;;;;;4976178;28;95876;-73
2022/05/22 09:15:34;;;;;;;5.05;3.60;;;27.50;52.10;;;;;;4976917;28;93149;-73
2022/05/22 09:18:37;;;;;;;8.30;3.50;;;27.00;53.50;;;;;;4978278;28;92345;-73
2022/05/22 09:21:04;;;;;;;8.27;2.58;;;26.60;53.60;;;;;;4978398;28;91679;-73
2022/05/22 09:23:40;;;;;;;9.38;2.63;;;26.20;55.30;;;;;;4977838;28;93399;-73
2022/05/22 09:26:10;;;;;;;6.13;2.08;;;25.60;55.50;;;;;;4977742;28;94011;-73
2022/05/22 09:28:59;;;;;;;8.57;2.58;;;25.10;57.30;;;;;;4975826;28;94871;-73
2022/05/22 09:31:53;;;;;;;6.38;3.25;;;24.50;57.60;;;;;;4976735;28;92490;-72
2022/05/22 09:34:43;;;;;;;8.40;2.72;;;24.00;60.00;;;;;;4977927;28;93300;-73
2022/05/22 09:37:50;;;;;;;7.70;2.88;;;23.60;60.80;;;;;;4977876;28;92918;-73
2022/05/22 09:40:23;;;;;;;7.45;2.38;;;23.60;61.50;;;;;;4954407;28;93029;-73
2022/05/22 09:43:13;;;;;;;6.60;3.63;;;23.60;62.50;;;;;;4978138;28;92449;-73
2022/05/22 09:45:50;;;;;;;11.32;4.07;;;23.90;62.40;;;;;;4976417;28;95731;-73
2022/05/22 09:48:35;;;;;;;7.95;3.63;;;24.00;62.40;;;;;;4976599;28;92918;-73
2022/05/22 09:51:23;;;;;;;5.38;2.70;;;24.10;63.10;;;;;;4978064;28;92530;-73
2022/05/22 09:53:50;;;;;;;6.55;2.65;;;24.20;63.00;;;;;;4977458;28;92355;-73
2022/05/22 09:56:55;;;;;;;7.40;2.60;;;24.20;62.50;;;;;;4976392;28;95785;-73
2022/05/22 09:59:30;;;;;;;9.57;2.80;;;24.00;62.90;;;;;;4975651;28;96496;-73
2022/05/22 10:02:02;;;;;;;10.95;3.42;;;23.90;63.50;;;;;;4977595;28;92343;-73
2022/05/22 10:04:54;;;;;;;7.27;4.10;;;23.70;62.60;;;;;;4977653;28;92945;-72
2022/05/22 10:07:37;;;;;;;7.63;4.35;;;23.50;62.00;;;;;;4976251;28;92938;-73
2022/05/22 10:10:25;;;;;;;6.50;2.50;;;23.40;62.40;;;;;;4977340;28;93146;-73
2022/05/22 10:13:13;;;;;;;8.07;4.80;;;23.50;60.50;;;;;;4976180;28;92609;-73
2022/05/22 10:15:59;;;;;;;10.20;4.20;;;23.70;61.80;;;;;;4977683;28;91634;-73
2022/05/22 10:18:49;;;;;;;9.95;4.25;;;23.80;61.40;;;;;;4977011;28;93282;-72
2022/05/22 10:21:36;;;;;;;11.55;3.80;;;23.90;61.60;;;;;;4936293;28;93182;-73
2022/05/22 10:24:40;;;;;;;7.75;3.67;;;23.90;60.80;;;;;;4976167;28;94825;-73
2022/05/22 10:27:31;;;;;;;6.75;4.07;;;24.10;59.90;;;;;;4959576;28;92506;-73
2022/05/22 10:30:01;;;;;;;7.82;3.45;;;24.20;60.00;;;;;;4977178;28;93071;-73
2022/05/22 10:32:43;;;;;;;7.30;2.53;;;24.10;59.60;;;;;;4975249;28;95646;-72
2022/05/22 10:35:30;;;;;;;6.18;3.47;;;24.10;59.00;;;;;;4977294;28;92658;-72
2022/05/22 10:38:09;;;;;;;7.22;2.55;;;24.00;59.80;;;;;;4975475;28;92556;-72
2022/05/22 10:43:34;;;;;;;8.45;2.80;;;23.90;59.40;;;;;;4975651;28;94305;-73
2022/05/22 10:46:01;;;;;;;5.55;2.40;;;23.90;59.40;;;;;;4977133;28;92435;-72
2022/05/22 10:48:31;;;;;;;6.35;4.13;;;23.90;59.70;;;;;;4976355;28;100267;-72
2022/05/22 10:51:02;;;;;;;6.03;2.35;;;23.90;60.40;;;;;;4973960;28;95491;-73
2022/05/22 10:53:32;;;;;;;5.20;3.63;;;23.90;61.20;;;;;;4976091;28;95112;-72
2022/05/22 10:56:14;;;;;;;6.13;2.20;;;23.90;60.20;;;;;;4976609;28;92720;-73
2022/05/22 10:58:57;;;;;;;4.95;2.67;;;23.80;60.10;;;;;;4976717;28;92783;-73
2022/05/22 11:01:27;;;;;;;10.35;2.75;;;23.70;60.60;;;;;;4976410;28;93343;-72
2022/05/22 11:04:10;;;;;;;4.95;3.25;;;23.50;61.30;;;;;;4975106;28;96009;-72
2022/05/22 11:06:55;;;;;;;5.57;2.20;;;23.50;60.40;;;;;;4976645;28;92344;-73
2022/05/22 11:09:27;;;;;;;4.70;2.35;;;23.60;60.80;;;;;;4975572;28;91691;-73
2022/05/22 11:12:12;;;;;;;3.97;2.28;;;23.40;61.00;;;;;;4974675;28;95869;-73
2022/05/22 11:14:40;;;;;;;9.15;2.90;;;23.50;61.80;;;;;;4976182;28;94766;-72
2022/05/22 11:17:14;;;;;;;7.82;4.05;;;23.50;61.40;;;;;;4974161;28;95104;-72
2022/05/22 11:19:45;;;;;;;4.97;2.33;;;23.60;61.40;;;;;;4976270;28;92388;-73
2022/05/22 11:22:59;;;;;;;5.65;2.25;;;23.60;60.60;;;;;;4975213;28;93300;-72
2022/05/22 11:25:48;;;;;;;5.80;2.67;;;23.70;61.40;;;;;;4915157;28;92841;-72
2022/05/22 11:28:35;;;;;;;4.82;1.92;;;23.80;60.00;;;;;;4972951;28;92904;-73
2022/05/22 11:31:26;;;;;;;4.03;3.50;;;24.00;59.50;;;;;;4975039;28;93145;-72
2022/05/22 11:34:13;;;;;;;5.93;3.88;;;24.10;58.00;;;;;;4975293;28;93288;-72
2022/05/22 11:37:00;;;;;;;5.60;1.95;;;24.10;60.20;;;;;;4976346;28;92932;-73
2022/05/22 11:40:02;;;;;;;4.63;2.45;;;24.10;59.90;;;;;;4976250;28;92449;-73
2022/05/22 11:42:39;;;;;;;7.60;2.03;;;24.00;58.80;;;;;;4975975;28;92411;-72
2022/05/22 11:45:41;;;;;;;6.78;1.83;;;23.80;59.30;;;;;;4974630;28;95579;-73
2022/05/22 11:48:43;;;;;;;6.45;3.13;;;23.70;58.70;;;;;;4965195;28;96487;-72
2022/05/22 11:51:32;;;;;;;5.78;2.90;;;23.70;59.20;;;;;;4976134;28;92488;-72
2022/05/22 11:54:20;;;;;;;7.57;3.80;;;23.70;58.70;;;;;;4974313;28;92917;-73
2022/05/22 11:56:56;;;;;;;4.13;2.00;;;23.60;59.80;;;;;;4974150;28;94214;-73
2022/05/22 11:59:47;;;;;;;6.10;2.50;;;23.60;60.30;;;;;;4974269;28;94716;-73
2022/05/22 12:02:26;;;;;;;4.95;2.20;;;23.50;59.60;;;;;;4975855;28;92421;-72
2022/05/22 12:05:22;;;;;;;4.55;3.53;;;23.50;61.40;;;;;;4976463;28;91592;-72
2022/05/22 12:08:03;;;;;;;6.88;3.45;;;23.40;60.40;;;;;;4967738;28;93176;-72
2022/05/22 12:10:35;;;;;;;4.70;3.72;;;23.20;61.20;;;;;;4975328;28;93021;-73
2022/05/22 12:13:25;;;;;;;4.68;2.22;;;23.30;62.20;;;;;;4973535;28;95029;-72
2022/05/22 12:16:00;;;;;;;4.63;3.00;;;23.20;61.80;;;;;;4975579;28;92469;-72
2022/05/22 12:18:29;;;;;;;6.40;3.15;;;23.10;62.40;;;;;;4974033;28;95936;-73
2022/05/22 12:21:18;;;;;;;5.20;2.55;;;23.00;62.20;;;;;;4975761;28;93009;-72
2022/05/22 12:24:13;;;;;;;5.68;2.78;;;23.00;62.20;;;;;;4975560;28;92346;-72
2022/05/22 12:26:42;;;;;;;6.97;1.95;;;23.20;62.90;;;;;;4974396;28;92402;-72
2022/05/22 12:29:25;;;;;;;7.82;2.28;;;23.30;62.20;;;;;;4975287;28;93291;-72
2022/05/22 12:31:56;;;;;;;;;;;23.50;60.70;;;;;;4974493;28;97274;-73
2022/05/22 12:34:43;;;;;;;5.75;2.60;;;23.50;60.60;;;;;;4977003;28;92492;-72
2022/05/22 12:37:18;;;;;;;7.00;2.10;;;23.90;61.50;;;;;;4975742;28;93160;-72
2022/05/22 12:39:53;;;;;;;3.65;2.83;;;24.10;59.20;;;;;;4972204;28;100088;-72
2022/05/22 12:42:28;;;;;;;5.68;3.38;;;24.40;58.60;;;;;;4973701;28;96690;-72
2022/05/22 12:44:55;;;;;;;6.53;2.35;;;24.70;58.10;;;;;;4975919;28;92536;-72
2022/05/22 12:47:47;;;;;;;4.88;3.08;;;24.90;57.20;;;;;;4978761;28;92456;-72
2022/05/22 12:50:43;;;;;;;5.88;2.70;;;25.10;55.50;;;;;;4977059;28;96005;-73
2022/05/22 12:53:28;;;;;;;4.43;2.10;;;25.30;54.60;;;;;;4976394;28;95590;-72
2022/05/22 12:55:57;;;;;;;4.28;1.80;;;25.40;54.00;;;;;;4978423;28;92373;-72
2022/05/22 12:58:40;;;;;;;3.67;1.75;;;25.40;54.50;;;;;;4977452;28;91732;-73
2022/05/22 13:01:28;;;;;;;5.57;1.63;;;25.70;52.60;;;;;;4977038;28;95638;-72
2022/05/22 13:04:06;;;;;;;4.60;1.73;;;25.70;52.90;;;;;;4978122;28;92953;-72
2022/05/22 13:06:36;;;;;;;5.03;2.25;;;25.90;52.50;;;;;;4977266;28;94866;-73
2022/05/22 13:09:06;;;;;;;5.88;3.30;;;26.10;50.90;;;;;;4978403;28;92446;-73
2022/05/22 13:11:44;;;;;;;4.88;2.40;;;26.30;51.30;;;;;;4976854;28;95821;-73
2022/05/22 13:14:37;;;;;;;3.60;2.38;;;26.40;49.90;;;;;;4963082;28;95389;-73
2022/05/22 13:17:06;;;;;;;5.22;3.25;;;26.40;50.30;;;;;;4977216;28;92548;-73
2022/05/22 13:19:48;;;;;;;4.70;2.88;;;26.20;50.00;;;;;;4978217;28;92460;-73
2022/05/22 13:22:29;;;;;;;5.55;1.80;;;26.30;49.70;;;;;;4976810;28;95812;-73
2022/05/22 13:24:57;;;;;;;4.43;1.95;;;26.30;51.80;;;;;;4977184;28;92972;-72
2022/05/22 13:27:30;;;;;;;4.68;2.80;;;26.20;51.60;;;;;;4978150;28;92401;-72
2022/05/22 13:30:04;;;;;;;3.13;1.58;;;26.30;51.40;;;;;;4976688;28;93289;-73
2022/05/22 13:33:09;;;;;;;4.20;2.50;;;26.20;51.30;;;;;;4975197;28;98145;-72
2022/05/22 13:35:48;;;;;;;4.20;2.28;;;26.20;51.00;;;;;;4973619;28;96334;-72
2022/05/22 13:38:15;;;;;;;5.45;1.90;;;25.90;51.50;;;;;;4976636;28;92492;-72
2022/05/22 13:41:11;;;;;;;5.93;2.33;;;25.80;51.40;;;;;;4977874;28;92906;-72
2022/05/22 13:44:24;;;;;;;6.90;3.55;;;25.60;52.40;;;;;;4978000;28;93430;-72
2022/05/22 13:47:10;;;;;;;4.60;1.65;;;25.20;53.70;;;;;;4977569;28;92914;-72
2022/05/22 13:53:33;;;;;;;6.07;2.80;;;25.00;53.40;;;;;;4978021;28;91635;-72
2022/05/22 13:56:00;;;;;;;4.65;2.00;;;24.90;53.40;;;;;;4899807;28;98936;-72
2022/05/22 13:58:34;;;;;;;3.90;3.28;;;24.70;53.50;;;;;;4915920;28;95781;-72